sensor_id;sensor_type;location;lat;lon;timestamp;P1;durP1;ratioP1;P2;durP2;ratioP2
8596;SDS011;4336;49.310;8.646;2023-03-09T00:01:51;35.53;;;16.47;;
8596;SDS011;4336;49.310;8.646;2023-03-09T00:04:18;43.37;;;16.07;;
8596;SDS011;4336;49.310;8.646;2023-03-09T00:06:45;12.73;;;9.83;;
8596;SDS011;4336;49.310;8.646;2023-03-09T00:09:12;10.03;;;9.13;;
8596;SDS011;4336;49.310;8.646;2023-03-09T00:11:42;10.30;;;8.70;;
8596;SDS011;4336;49.310;8.646;2023-03-09T00:14:09;14.00;;;8.07;;
8596;SDS011;4336;49.310;8.646;2023-03-09T00:16:36;10.90;;;7.97;;
8596;SDS011;4336;49.310;8.646;2023-03-09T00:19:02;9.50;;;8.50;;
8596;SDS011;4336;49.310;8.646;2023-03-09T00:21:29;8.87;;;7.97;;
8596;SDS011;4336;49.310;8.646;2023-03-09T00:24:10;7.67;;;6.93;;
8596;SDS011;4336;49.310;8.646;2023-03-09T00:26:38;8.50;;;7.70;;
8596;SDS011;4336;49.310;8.646;2023-03-09T00:29:05;8.90;;;8.00;;
8596;SDS011;4336;49.310;8.646;2023-03-09T00:31:32;8.27;;;7.47;;
8596;SDS011;4336;49.310;8.646;2023-03-09T00:33:58;8.90;;;8.00;;
8596;SDS011;4336;49.310;8.646;2023-03-09T00:36:24;7.80;;;6.30;;
8596;SDS011;4336;49.310;8.646;2023-03-09T00:38:51;8.33;;;7.63;;
8596;SDS011;4336;49.310;8.646;2023-03-09T00:41:18;8.60;;;7.80;;
8596;SDS011;4336;49.310;8.646;2023-03-09T00:43:44;8.67;;;7.70;;
8596;SDS011;4336;49.310;8.646;2023-03-09T00:46:10;9.17;;;8.37;;
8596;SDS011;4336;49.310;8.646;2023-03-09T00:48:37;8.23;;;7.50;;
8596;SDS011;4336;49.310;8.646;2023-03-09T00:51:04;8.20;;;7.40;;
8596;SDS011;4336;49.310;8.646;2023-03-09T00:53:30;7.20;;;6.27;;
8596;SDS011;4336;49.310;8.646;2023-03-09T00:55:56;10.13;;;9.23;;
8596;SDS011;4336;49.310;8.646;2023-03-09T00:58:25;13.50;;;10.83;;
8596;SDS011;4336;49.310;8.646;2023-03-09T01:00:52;9.00;;;8.30;;
8596;SDS011;4336;49.310;8.646;2023-03-09T01:03:18;8.20;;;7.50;;
8596;SDS011;4336;49.310;8.646;2023-03-09T01:05:44;7.83;;;7.23;;
8596;SDS011;4336;49.310;8.646;2023-03-09T01:08:10;7.57;;;6.87;;
8596;SDS011;4336;49.310;8.646;2023-03-09T01:10:40;8.80;;;8.10;;
8596;SDS011;4336;49.310;8.646;2023-03-09T01:13:06;8.50;;;7.63;;
8596;SDS011;4336;49.310;8.646;2023-03-09T01:15:32;8.33;;;7.53;;
8596;SDS011;4336;49.310;8.646;2023-03-09T01:17:59;8.87;;;8.17;;
8596;SDS011;4336;49.310;8.646;2023-03-09T01:20:25;9.03;;;8.13;;
8596;SDS011;4336;49.310;8.646;2023-03-09T01:22:51;7.73;;;6.27;;
8596;SDS011;4336;49.310;8.646;2023-03-09T01:25:17;7.30;;;6.70;;
8596;SDS011;4336;49.310;8.646;2023-03-09T01:27:43;8.50;;;7.67;;
8596;SDS011;4336;49.310;8.646;2023-03-09T01:30:09;9.30;;;8.43;;
8596;SDS011;4336;49.310;8.646;2023-03-09T01:32:37;12.67;;;11.37;;
8596;SDS011;4336;49.310;8.646;2023-03-09T01:35:04;9.63;;;8.63;;
8596;SDS011;4336;49.310;8.646;2023-03-09T01:37:31;8.70;;;7.93;;
8596;SDS011;4336;49.310;8.646;2023-03-09T01:39:58;8.47;;;7.67;;
8596;SDS011;4336;49.310;8.646;2023-03-09T01:42:24;8.30;;;7.57;;
8596;SDS011;4336;49.310;8.646;2023-03-09T01:47:36;8.40;;;7.50;;
8596;SDS011;4336;49.310;8.646;2023-03-09T01:50:02;8.20;;;7.40;;
8596;SDS011;4336;49.310;8.646;2023-03-09T01:52:30;9.00;;;8.10;;
8596;SDS011;4336;49.310;8.646;2023-03-09T01:55:11;7.70;;;6.90;;
8596;SDS011;4336;49.310;8.646;2023-03-09T02:00:09;9.23;;;8.40;;
8596;SDS011;4336;49.310;8.646;2023-03-09T02:02:58;11.00;;;7.00;;
8596;SDS011;4336;49.310;8.646;2023-03-09T02:05:29;6.70;;;5.80;;
8596;SDS011;4336;49.310;8.646;2023-03-09T02:07:58;7.97;;;7.17;;
8596;SDS011;4336;49.310;8.646;2023-03-09T02:10:29;10.70;;;6.57;;
8596;SDS011;4336;49.310;8.646;2023-03-09T02:13:09;9.03;;;8.13;;
8596;SDS011;4336;49.310;8.646;2023-03-09T02:15:37;8.00;;;7.30;;
8596;SDS011;4336;49.310;8.646;2023-03-09T02:18:05;9.13;;;8.23;;
8596;SDS011;4336;49.310;8.646;2023-03-09T02:20:33;9.70;;;7.90;;
8596;SDS011;4336;49.310;8.646;2023-03-09T02:23:02;8.83;;;7.93;;
8596;SDS011;4336;49.310;8.646;2023-03-09T02:25:33;8.27;;;7.57;;
8596;SDS011;4336;49.310;8.646;2023-03-09T02:27:59;9.10;;;8.30;;
8596;SDS011;4336;49.310;8.646;2023-03-09T02:30:28;9.40;;;8.50;;
8596;SDS011;4336;49.310;8.646;2023-03-09T02:33:03;9.23;;;8.27;;
8596;SDS011;4336;49.310;8.646;2023-03-09T02:35:31;10.20;;;9.30;;
8596;SDS011;4336;49.310;8.646;2023-03-09T02:37:58;13.00;;;9.33;;
8596;SDS011;4336;49.310;8.646;2023-03-09T02:42:51;12.07;;;8.50;;
8596;SDS011;4336;49.310;8.646;2023-03-09T02:45:20;9.83;;;8.27;;
8596;SDS011;4336;49.310;8.646;2023-03-09T02:47:47;12.10;;;8.83;;
8596;SDS011;4336;49.310;8.646;2023-03-09T02:50:15;9.93;;;8.30;;
8596;SDS011;4336;49.310;8.646;2023-03-09T02:52:41;8.73;;;7.83;;
8596;SDS011;4336;49.310;8.646;2023-03-09T02:55:08;9.23;;;8.23;;
8596;SDS011;4336;49.310;8.646;2023-03-09T02:57:35;8.83;;;6.97;;
8596;SDS011;4336;49.310;8.646;2023-03-09T03:00:02;13.80;;;10.70;;
8596;SDS011;4336;49.310;8.646;2023-03-09T03:02:29;10.10;;;8.30;;
8596;SDS011;4336;49.310;8.646;2023-03-09T03:04:56;8.93;;;8.07;;
8596;SDS011;4336;49.310;8.646;2023-03-09T03:07:24;8.67;;;7.77;;
8596;SDS011;4336;49.310;8.646;2023-03-09T03:09:50;8.63;;;7.83;;
8596;SDS011;4336;49.310;8.646;2023-03-09T03:12:16;8.80;;;8.00;;
8596;SDS011;4336;49.310;8.646;2023-03-09T03:14:44;9.60;;;7.70;;
8596;SDS011;4336;49.310;8.646;2023-03-09T03:17:13;7.90;;;7.20;;
8596;SDS011;4336;49.310;8.646;2023-03-09T03:19:39;8.87;;;7.97;;
8596;SDS011;4336;49.310;8.646;2023-03-09T03:22:07;7.77;;;7.07;;
8596;SDS011;4336;49.310;8.646;2023-03-09T03:24:35;8.63;;;7.80;;
8596;SDS011;4336;49.310;8.646;2023-03-09T03:27:02;8.90;;;8.10;;
8596;SDS011;4336;49.310;8.646;2023-03-09T03:29:28;7.37;;;6.40;;
8596;SDS011;4336;49.310;8.646;2023-03-09T03:31:54;8.57;;;7.83;;
8596;SDS011;4336;49.310;8.646;2023-03-09T03:34:23;7.40;;;6.37;;
8596;SDS011;4336;49.310;8.646;2023-03-09T03:36:50;10.00;;;7.97;;
8596;SDS011;4336;49.310;8.646;2023-03-09T03:39:16;8.80;;;8.00;;
8596;SDS011;4336;49.310;8.646;2023-03-09T03:41:44;8.47;;;7.67;;
8596;SDS011;4336;49.310;8.646;2023-03-09T03:44:13;8.57;;;6.87;;
8596;SDS011;4336;49.310;8.646;2023-03-09T03:46:41;8.27;;;7.57;;
8596;SDS011;4336;49.310;8.646;2023-03-09T03:49:08;8.53;;;7.57;;
8596;SDS011;4336;49.310;8.646;2023-03-09T03:51:36;8.00;;;7.20;;
8596;SDS011;4336;49.310;8.646;2023-03-09T03:54:03;8.20;;;7.30;;
8596;SDS011;4336;49.310;8.646;2023-03-09T03:56:29;9.20;;;7.63;;
8596;SDS011;4336;49.310;8.646;2023-03-09T03:58:58;7.80;;;7.10;;
8596;SDS011;4336;49.310;8.646;2023-03-09T04:01:24;6.50;;;5.90;;
8596;SDS011;4336;49.310;8.646;2023-03-09T04:03:56;8.83;;;7.83;;
8596;SDS011;4336;49.310;8.646;2023-03-09T04:06:23;9.67;;;8.67;;
8596;SDS011;4336;49.310;8.646;2023-03-09T04:08:50;10.67;;;9.17;;
8596;SDS011;4336;49.310;8.646;2023-03-09T04:11:17;9.27;;;8.40;;
8596;SDS011;4336;49.310;8.646;2023-03-09T04:13:48;8.97;;;8.00;;
8596;SDS011;4336;49.310;8.646;2023-03-09T04:16:15;9.67;;;8.30;;
8596;SDS011;4336;49.310;8.646;2023-03-09T04:18:42;10.03;;;9.00;;
8596;SDS011;4336;49.310;8.646;2023-03-09T04:21:09;8.97;;;7.70;;
8596;SDS011;4336;49.310;8.646;2023-03-09T04:23:36;9.27;;;8.30;;
8596;SDS011;4336;49.310;8.646;2023-03-09T04:26:04;9.07;;;8.10;;
8596;SDS011;4336;49.310;8.646;2023-03-09T04:28:43;10.57;;;8.27;;
8596;SDS011;4336;49.310;8.646;2023-03-09T04:31:14;9.67;;;8.37;;
8596;SDS011;4336;49.310;8.646;2023-03-09T04:33:49;9.00;;;8.10;;
8596;SDS011;4336;49.310;8.646;2023-03-09T04:36:18;10.27;;;8.40;;
8596;SDS011;4336;49.310;8.646;2023-03-09T04:38:46;16.70;;;8.97;;
8596;SDS011;4336;49.310;8.646;2023-03-09T04:41:14;10.80;;;6.90;;
8596;SDS011;4336;49.310;8.646;2023-03-09T04:43:44;9.73;;;7.03;;
8596;SDS011;4336;49.310;8.646;2023-03-09T04:46:12;8.43;;;7.13;;
8596;SDS011;4336;49.310;8.646;2023-03-09T04:48:38;10.77;;;8.60;;
8596;SDS011;4336;49.310;8.646;2023-03-09T04:51:04;10.50;;;7.83;;
8596;SDS011;4336;49.310;8.646;2023-03-09T04:53:31;14.53;;;7.93;;
8596;SDS011;4336;49.310;8.646;2023-03-09T04:55:59;14.97;;;8.90;;
8596;SDS011;4336;49.310;8.646;2023-03-09T04:58:27;11.17;;;8.33;;
8596;SDS011;4336;49.310;8.646;2023-03-09T05:00:54;16.70;;;7.47;;
8596;SDS011;4336;49.310;8.646;2023-03-09T05:03:22;10.83;;;6.77;;
8596;SDS011;4336;49.310;8.646;2023-03-09T05:05:52;13.63;;;7.40;;
8596;SDS011;4336;49.310;8.646;2023-03-09T05:08:22;17.47;;;9.63;;
8596;SDS011;4336;49.310;8.646;2023-03-09T05:10:48;15.87;;;8.87;;
8596;SDS011;4336;49.310;8.646;2023-03-09T05:13:16;12.70;;;8.40;;
8596;SDS011;4336;49.310;8.646;2023-03-09T05:15:42;12.97;;;8.77;;
8596;SDS011;4336;49.310;8.646;2023-03-09T05:18:10;14.90;;;8.27;;
8596;SDS011;4336;49.310;8.646;2023-03-09T05:20:37;15.93;;;8.57;;
8596;SDS011;4336;49.310;8.646;2023-03-09T05:23:05;15.43;;;9.10;;
8596;SDS011;4336;49.310;8.646;2023-03-09T05:25:31;12.43;;;7.10;;
8596;SDS011;4336;49.310;8.646;2023-03-09T05:27:59;18.20;;;8.13;;
8596;SDS011;4336;49.310;8.646;2023-03-09T05:30:29;15.33;;;9.27;;
8596;SDS011;4336;49.310;8.646;2023-03-09T05:32:56;16.37;;;8.03;;
8596;SDS011;4336;49.310;8.646;2023-03-09T05:35:24;11.90;;;9.30;;
8596;SDS011;4336;49.310;8.646;2023-03-09T05:37:51;12.20;;;9.13;;
8596;SDS011;4336;49.310;8.646;2023-03-09T05:40:21;13.20;;;7.83;;
8596;SDS011;4336;49.310;8.646;2023-03-09T05:42:52;14.40;;;9.80;;
8596;SDS011;4336;49.310;8.646;2023-03-09T05:45:19;19.17;;;9.90;;
8596;SDS011;4336;49.310;8.646;2023-03-09T05:47:45;18.07;;;10.17;;
8596;SDS011;4336;49.310;8.646;2023-03-09T05:50:11;15.70;;;8.83;;
8596;SDS011;4336;49.310;8.646;2023-03-09T05:52:38;15.33;;;8.63;;
8596;SDS011;4336;49.310;8.646;2023-03-09T05:55:05;18.70;;;9.63;;
8596;SDS011;4336;49.310;8.646;2023-03-09T05:57:32;12.37;;;8.83;;
8596;SDS011;4336;49.310;8.646;2023-03-09T06:00:00;13.47;;;8.73;;
8596;SDS011;4336;49.310;8.646;2023-03-09T06:02:38;12.40;;;9.27;;
8596;SDS011;4336;49.310;8.646;2023-03-09T06:05:06;14.07;;;9.40;;
8596;SDS011;4336;49.310;8.646;2023-03-09T06:07:33;12.40;;;8.90;;
8596;SDS011;4336;49.310;8.646;2023-03-09T06:10:01;15.03;;;8.93;;
8596;SDS011;4336;49.310;8.646;2023-03-09T06:12:27;16.70;;;9.63;;
8596;SDS011;4336;49.310;8.646;2023-03-09T06:14:55;17.03;;;9.90;;
8596;SDS011;4336;49.310;8.646;2023-03-09T06:17:24;10.23;;;7.80;;
8596;SDS011;4336;49.310;8.646;2023-03-09T06:19:51;14.57;;;9.33;;
8596;SDS011;4336;49.310;8.646;2023-03-09T06:22:20;16.90;;;9.40;;
8596;SDS011;4336;49.310;8.646;2023-03-09T06:24:49;16.50;;;9.40;;
8596;SDS011;4336;49.310;8.646;2023-03-09T06:27:15;18.43;;;9.77;;
8596;SDS011;4336;49.310;8.646;2023-03-09T06:29:42;13.60;;;8.83;;
8596;SDS011;4336;49.310;8.646;2023-03-09T06:32:08;12.57;;;8.10;;
8596;SDS011;4336;49.310;8.646;2023-03-09T06:34:37;14.57;;;9.37;;
8596;SDS011;4336;49.310;8.646;2023-03-09T06:37:06;16.53;;;9.50;;
8596;SDS011;4336;49.310;8.646;2023-03-09T06:39:33;14.90;;;9.33;;
8596;SDS011;4336;49.310;8.646;2023-03-09T06:42:00;13.20;;;8.23;;
8596;SDS011;4336;49.310;8.646;2023-03-09T06:44:34;14.17;;;9.30;;
8596;SDS011;4336;49.310;8.646;2023-03-09T06:47:01;18.40;;;8.93;;
8596;SDS011;4336;49.310;8.646;2023-03-09T06:49:28;15.50;;;9.57;;
8596;SDS011;4336;49.310;8.646;2023-03-09T06:51:57;21.30;;;9.90;;
8596;SDS011;4336;49.310;8.646;2023-03-09T06:54:24;13.33;;;8.43;;
8596;SDS011;4336;49.310;8.646;2023-03-09T06:56:59;16.30;;;8.80;;
8596;SDS011;4336;49.310;8.646;2023-03-09T06:59:29;18.17;;;9.57;;
8596;SDS011;4336;49.310;8.646;2023-03-09T07:01:57;19.30;;;9.60;;
8596;SDS011;4336;49.310;8.646;2023-03-09T07:04:23;18.53;;;9.80;;
8596;SDS011;4336;49.310;8.646;2023-03-09T07:06:49;20.30;;;9.50;;
8596;SDS011;4336;49.310;8.646;2023-03-09T07:09:15;18.57;;;9.97;;
8596;SDS011;4336;49.310;8.646;2023-03-09T07:11:42;17.37;;;9.53;;
8596;SDS011;4336;49.310;8.646;2023-03-09T07:14:08;15.90;;;9.30;;
8596;SDS011;4336;49.310;8.646;2023-03-09T07:16:34;22.50;;;12.17;;
8596;SDS011;4336;49.310;8.646;2023-03-09T07:19:00;20.60;;;10.83;;
8596;SDS011;4336;49.310;8.646;2023-03-09T07:21:26;18.33;;;10.37;;
8596;SDS011;4336;49.310;8.646;2023-03-09T07:23:53;16.57;;;9.53;;
8596;SDS011;4336;49.310;8.646;2023-03-09T07:26:19;18.17;;;9.60;;
8596;SDS011;4336;49.310;8.646;2023-03-09T07:28:45;23.80;;;10.33;;
8596;SDS011;4336;49.310;8.646;2023-03-09T07:31:12;23.20;;;10.07;;
8596;SDS011;4336;49.310;8.646;2023-03-09T07:33:39;19.80;;;9.77;;
8596;SDS011;4336;49.310;8.646;2023-03-09T07:36:05;20.63;;;8.33;;
8596;SDS011;4336;49.310;8.646;2023-03-09T07:38:32;19.90;;;9.90;;
8596;SDS011;4336;49.310;8.646;2023-03-09T07:40:59;23.13;;;10.67;;
8596;SDS011;4336;49.310;8.646;2023-03-09T07:43:25;20.23;;;11.63;;
8596;SDS011;4336;49.310;8.646;2023-03-09T07:46:04;20.17;;;9.83;;
8596;SDS011;4336;49.310;8.646;2023-03-09T07:48:30;21.00;;;10.70;;
8596;SDS011;4336;49.310;8.646;2023-03-09T07:50:57;20.83;;;10.57;;
8596;SDS011;4336;49.310;8.646;2023-03-09T07:53:23;20.50;;;10.43;;
8596;SDS011;4336;49.310;8.646;2023-03-09T07:55:56;19.97;;;9.97;;
8596;SDS011;4336;49.310;8.646;2023-03-09T07:58:23;24.10;;;9.90;;
8596;SDS011;4336;49.310;8.646;2023-03-09T08:00:49;22.97;;;10.33;;
8596;SDS011;4336;49.310;8.646;2023-03-09T08:03:16;18.40;;;10.23;;
8596;SDS011;4336;49.310;8.646;2023-03-09T08:05:42;24.33;;;10.93;;
8596;SDS011;4336;49.310;8.646;2023-03-09T08:08:08;25.67;;;11.40;;
8596;SDS011;4336;49.310;8.646;2023-03-09T08:10:36;27.57;;;11.63;;
8596;SDS011;4336;49.310;8.646;2023-03-09T08:13:02;21.13;;;9.93;;
8596;SDS011;4336;49.310;8.646;2023-03-09T08:15:29;17.67;;;10.50;;
8596;SDS011;4336;49.310;8.646;2023-03-09T08:17:55;21.33;;;9.77;;
8596;SDS011;4336;49.310;8.646;2023-03-09T08:20:21;22.53;;;9.97;;
8596;SDS011;4336;49.310;8.646;2023-03-09T08:22:47;21.00;;;10.43;;
8596;SDS011;4336;49.310;8.646;2023-03-09T08:25:16;17.03;;;9.70;;
8596;SDS011;4336;49.310;8.646;2023-03-09T08:27:43;18.57;;;9.53;;
8596;SDS011;4336;49.310;8.646;2023-03-09T08:30:12;26.23;;;14.33;;
8596;SDS011;4336;49.310;8.646;2023-03-09T08:32:39;17.17;;;13.17;;
8596;SDS011;4336;49.310;8.646;2023-03-09T08:35:05;23.27;;;10.07;;
8596;SDS011;4336;49.310;8.646;2023-03-09T08:37:32;19.70;;;10.23;;
8596;SDS011;4336;49.310;8.646;2023-03-09T08:39:58;14.97;;;8.67;;
8596;SDS011;4336;49.310;8.646;2023-03-09T08:42:24;19.23;;;9.90;;
8596;SDS011;4336;49.310;8.646;2023-03-09T08:44:50;23.47;;;12.17;;
8596;SDS011;4336;49.310;8.646;2023-03-09T08:47:16;17.10;;;11.20;;
8596;SDS011;4336;49.310;8.646;2023-03-09T08:49:42;18.23;;;10.23;;
8596;SDS011;4336;49.310;8.646;2023-03-09T08:52:09;14.40;;;9.10;;
8596;SDS011;4336;49.310;8.646;2023-03-09T08:54:35;17.17;;;9.33;;
8596;SDS011;4336;49.310;8.646;2023-03-09T08:57:01;14.10;;;9.60;;
8596;SDS011;4336;49.310;8.646;2023-03-09T08:59:28;14.33;;;9.70;;
8596;SDS011;4336;49.310;8.646;2023-03-09T09:01:54;17.00;;;9.77;;
8596;SDS011;4336;49.310;8.646;2023-03-09T09:04:20;19.50;;;8.70;;
8596;SDS011;4336;49.310;8.646;2023-03-09T09:06:46;37.07;;;22.37;;
8596;SDS011;4336;49.310;8.646;2023-03-09T09:09:12;17.43;;;10.67;;
8596;SDS011;4336;49.310;8.646;2023-03-09T09:11:39;18.03;;;9.40;;
8596;SDS011;4336;49.310;8.646;2023-03-09T09:14:05;17.03;;;9.40;;
8596;SDS011;4336;49.310;8.646;2023-03-09T09:16:31;17.40;;;8.70;;
8596;SDS011;4336;49.310;8.646;2023-03-09T09:18:57;18.83;;;9.00;;
8596;SDS011;4336;49.310;8.646;2023-03-09T09:21:24;15.90;;;9.83;;
8596;SDS011;4336;49.310;8.646;2023-03-09T09:23:53;20.83;;;9.73;;
8596;SDS011;4336;49.310;8.646;2023-03-09T09:26:19;17.27;;;8.40;;
8596;SDS011;4336;49.310;8.646;2023-03-09T09:28:46;19.60;;;11.73;;
8596;SDS011;4336;49.310;8.646;2023-03-09T09:31:15;21.83;;;10.43;;
8596;SDS011;4336;49.310;8.646;2023-03-09T09:33:43;16.53;;;8.17;;
8596;SDS011;4336;49.310;8.646;2023-03-09T09:36:11;15.27;;;9.60;;
8596;SDS011;4336;49.310;8.646;2023-03-09T09:38:38;19.77;;;10.20;;
8596;SDS011;4336;49.310;8.646;2023-03-09T09:41:12;20.20;;;10.10;;
8596;SDS011;4336;49.310;8.646;2023-03-09T09:43:39;21.40;;;10.50;;
8596;SDS011;4336;49.310;8.646;2023-03-09T09:46:09;16.70;;;9.97;;
8596;SDS011;4336;49.310;8.646;2023-03-09T09:48:35;18.93;;;10.07;;
8596;SDS011;4336;49.310;8.646;2023-03-09T09:53:42;18.63;;;9.13;;
8596;SDS011;4336;49.310;8.646;2023-03-09T09:56:15;13.10;;;8.77;;
8596;SDS011;4336;49.310;8.646;2023-03-09T09:58:53;15.37;;;9.30;;
8596;SDS011;4336;49.310;8.646;2023-03-09T10:01:25;14.10;;;8.30;;
8596;SDS011;4336;49.310;8.646;2023-03-09T10:03:53;22.23;;;10.27;;
8596;SDS011;4336;49.310;8.646;2023-03-09T10:06:21;15.00;;;9.77;;
8596;SDS011;4336;49.310;8.646;2023-03-09T10:08:58;15.53;;;9.57;;
8596;SDS011;4336;49.310;8.646;2023-03-09T10:11:26;15.17;;;9.17;;
8596;SDS011;4336;49.310;8.646;2023-03-09T10:13:55;10.43;;;9.10;;
8596;SDS011;4336;49.310;8.646;2023-03-09T10:16:46;18.20;;;9.83;;
8596;SDS011;4336;49.310;8.646;2023-03-09T10:19:14;15.87;;;9.47;;
8596;SDS011;4336;49.310;8.646;2023-03-09T10:21:46;11.47;;;9.03;;
8596;SDS011;4336;49.310;8.646;2023-03-09T10:24:25;17.20;;;9.30;;
8596;SDS011;4336;49.310;8.646;2023-03-09T10:27:06;17.00;;;9.33;;
8596;SDS011;4336;49.310;8.646;2023-03-09T10:32:20;16.50;;;11.17;;
8596;SDS011;4336;49.310;8.646;2023-03-09T10:34:54;11.67;;;9.33;;
8596;SDS011;4336;49.310;8.646;2023-03-09T10:37:32;16.60;;;10.83;;
8596;SDS011;4336;49.310;8.646;2023-03-09T10:40:01;14.53;;;9.90;;
8596;SDS011;4336;49.310;8.646;2023-03-09T10:42:31;13.30;;;9.60;;
8596;SDS011;4336;49.310;8.646;2023-03-09T10:45:06;17.30;;;11.40;;
8596;SDS011;4336;49.310;8.646;2023-03-09T10:50:18;12.03;;;9.33;;
8596;SDS011;4336;49.310;8.646;2023-03-09T10:52:46;14.70;;;9.93;;
8596;SDS011;4336;49.310;8.646;2023-03-09T10:55:31;12.67;;;8.97;;
8596;SDS011;4336;49.310;8.646;2023-03-09T10:58:20;16.70;;;10.00;;
8596;SDS011;4336;49.310;8.646;2023-03-09T11:00:57;16.17;;;8.63;;
8596;SDS011;4336;49.310;8.646;2023-03-09T11:03:30;13.47;;;9.47;;
8596;SDS011;4336;49.310;8.646;2023-03-09T11:06:08;13.27;;;9.50;;
8596;SDS011;4336;49.310;8.646;2023-03-09T11:08:35;16.20;;;10.27;;
8596;SDS011;4336;49.310;8.646;2023-03-09T11:11:03;13.27;;;10.93;;
8596;SDS011;4336;49.310;8.646;2023-03-09T11:13:30;13.27;;;8.53;;
8596;SDS011;4336;49.310;8.646;2023-03-09T11:16:18;11.00;;;9.93;;
8596;SDS011;4336;49.310;8.646;2023-03-09T11:19:11;14.00;;;9.07;;
8596;SDS011;4336;49.310;8.646;2023-03-09T11:21:39;14.70;;;10.80;;
8596;SDS011;4336;49.310;8.646;2023-03-09T11:24:21;11.30;;;9.17;;
8596;SDS011;4336;49.310;8.646;2023-03-09T11:26:51;15.27;;;9.57;;
8596;SDS011;4336;49.310;8.646;2023-03-09T11:29:34;16.40;;;10.57;;
8596;SDS011;4336;49.310;8.646;2023-03-09T11:32:19;13.20;;;8.40;;
8596;SDS011;4336;49.310;8.646;2023-03-09T11:34:45;12.27;;;7.50;;
8596;SDS011;4336;49.310;8.646;2023-03-09T11:37:22;12.13;;;8.23;;
8596;SDS011;4336;49.310;8.646;2023-03-09T11:42:34;15.90;;;10.97;;
8596;SDS011;4336;49.310;8.646;2023-03-09T11:45:02;16.77;;;10.97;;
8596;SDS011;4336;49.310;8.646;2023-03-09T11:47:34;11.90;;;9.43;;
8596;SDS011;4336;49.310;8.646;2023-03-09T11:50:11;14.83;;;10.40;;
8596;SDS011;4336;49.310;8.646;2023-03-09T11:53:05;13.53;;;10.50;;
8596;SDS011;4336;49.310;8.646;2023-03-09T11:55:40;10.27;;;9.07;;
8596;SDS011;4336;49.310;8.646;2023-03-09T11:58:12;11.83;;;9.00;;
8596;SDS011;4336;49.310;8.646;2023-03-09T12:00:43;14.03;;;11.50;;
8596;SDS011;4336;49.310;8.646;2023-03-09T12:03:13;10.00;;;8.97;;
8596;SDS011;4336;49.310;8.646;2023-03-09T12:05:45;12.87;;;10.97;;
8596;SDS011;4336;49.310;8.646;2023-03-09T12:08:35;11.97;;;10.20;;
8596;SDS011;4336;49.310;8.646;2023-03-09T12:11:06;10.07;;;8.57;;
8596;SDS011;4336;49.310;8.646;2023-03-09T12:13:46;8.77;;;7.60;;
8596;SDS011;4336;49.310;8.646;2023-03-09T12:16:37;9.60;;;8.23;;
8596;SDS011;4336;49.310;8.646;2023-03-09T12:21:32;9.80;;;8.23;;
8596;SDS011;4336;49.310;8.646;2023-03-09T12:24:01;11.47;;;9.43;;
8596;SDS011;4336;49.310;8.646;2023-03-09T12:26:41;9.50;;;8.60;;
8596;SDS011;4336;49.310;8.646;2023-03-09T12:31:41;14.00;;;9.93;;
8596;SDS011;4336;49.310;8.646;2023-03-09T12:36:35;10.77;;;9.13;;
8596;SDS011;4336;49.310;8.646;2023-03-09T12:49:48;13.60;;;9.43;;
8596;SDS011;4336;49.310;8.646;2023-03-09T12:52:26;13.23;;;8.83;;
8596;SDS011;4336;49.310;8.646;2023-03-09T12:55:10;12.30;;;8.73;;
8596;SDS011;4336;49.310;8.646;2023-03-09T12:57:37;9.77;;;8.77;;
8596;SDS011;4336;49.310;8.646;2023-03-09T13:02:53;10.77;;;9.53;;
8596;SDS011;4336;49.310;8.646;2023-03-09T13:05:27;11.37;;;9.53;;
8596;SDS011;4336;49.310;8.646;2023-03-09T13:07:55;12.30;;;7.80;;
8596;SDS011;4336;49.310;8.646;2023-03-09T13:10:33;11.90;;;8.60;;
8596;SDS011;4336;49.310;8.646;2023-03-09T13:13:46;11.23;;;9.07;;
8596;SDS011;4336;49.310;8.646;2023-03-09T13:21:44;11.20;;;8.97;;
8596;SDS011;4336;49.310;8.646;2023-03-09T13:24:15;13.00;;;8.53;;
8596;SDS011;4336;49.310;8.646;2023-03-09T13:26:44;11.67;;;8.77;;
8596;SDS011;4336;49.310;8.646;2023-03-09T13:29:15;10.17;;;8.83;;
8596;SDS011;4336;49.310;8.646;2023-03-09T13:31:42;10.50;;;9.40;;
8596;SDS011;4336;49.310;8.646;2023-03-09T13:34:33;10.17;;;9.07;;
8596;SDS011;4336;49.310;8.646;2023-03-09T13:37:02;10.70;;;8.73;;
8596;SDS011;4336;49.310;8.646;2023-03-09T13:39:30;10.47;;;8.60;;
8596;SDS011;4336;49.310;8.646;2023-03-09T13:41:56;10.13;;;8.00;;
8596;SDS011;4336;49.310;8.646;2023-03-09T13:44:26;11.10;;;8.73;;
8596;SDS011;4336;49.310;8.646;2023-03-09T13:46:54;12.63;;;9.60;;
8596;SDS011;4336;49.310;8.646;2023-03-09T13:49:31;11.93;;;9.30;;
8596;SDS011;4336;49.310;8.646;2023-03-09T13:52:32;11.07;;;8.80;;
8596;SDS011;4336;49.310;8.646;2023-03-09T13:54:53;11.90;;;9.37;;
8596;SDS011;4336;49.310;8.646;2023-03-09T13:57:31;11.77;;;9.40;;
8596;SDS011;4336;49.310;8.646;2023-03-09T14:00:44;10.70;;;9.13;;
8596;SDS011;4336;49.310;8.646;2023-03-09T14:02:48;11.43;;;7.60;;
8596;SDS011;4336;49.310;8.646;2023-03-09T14:10:23;13.87;;;9.97;;
8596;SDS011;4336;49.310;8.646;2023-03-09T14:12:55;12.30;;;9.80;;
8596;SDS011;4336;49.310;8.646;2023-03-09T14:15:23;11.10;;;9.50;;
8596;SDS011;4336;49.310;8.646;2023-03-09T14:17:49;11.73;;;9.37;;
8596;SDS011;4336;49.310;8.646;2023-03-09T14:20:19;11.47;;;9.30;;
8596;SDS011;4336;49.310;8.646;2023-03-09T14:22:49;12.33;;;9.27;;
8596;SDS011;4336;49.310;8.646;2023-03-09T14:27:48;13.73;;;10.10;;
8596;SDS011;4336;49.310;8.646;2023-03-09T14:33:28;13.80;;;9.80;;
8596;SDS011;4336;49.310;8.646;2023-03-09T14:38:51;16.77;;;9.87;;
8596;SDS011;4336;49.310;8.646;2023-03-09T14:41:35;11.70;;;8.93;;
8596;SDS011;4336;49.310;8.646;2023-03-09T14:44:01;14.83;;;10.43;;
8596;SDS011;4336;49.310;8.646;2023-03-09T14:46:28;14.67;;;11.17;;
8596;SDS011;4336;49.310;8.646;2023-03-09T14:48:55;14.73;;;9.83;;
8596;SDS011;4336;49.310;8.646;2023-03-09T14:51:32;16.53;;;10.70;;
8596;SDS011;4336;49.310;8.646;2023-03-09T14:54:01;11.20;;;9.43;;
8596;SDS011;4336;49.310;8.646;2023-03-09T14:56:32;14.33;;;11.10;;
8596;SDS011;4336;49.310;8.646;2023-03-09T15:01:58;13.33;;;9.17;;
8596;SDS011;4336;49.310;8.646;2023-03-09T15:04:27;18.63;;;11.87;;
8596;SDS011;4336;49.310;8.646;2023-03-09T15:06:54;17.13;;;11.27;;
8596;SDS011;4336;49.310;8.646;2023-03-09T15:09:20;15.27;;;9.57;;
8596;SDS011;4336;49.310;8.646;2023-03-09T15:11:46;14.33;;;11.27;;
8596;SDS011;4336;49.310;8.646;2023-03-09T15:14:24;18.77;;;11.53;;
8596;SDS011;4336;49.310;8.646;2023-03-09T15:16:55;18.40;;;10.97;;
8596;SDS011;4336;49.310;8.646;2023-03-09T15:19:21;15.60;;;9.77;;
8596;SDS011;4336;49.310;8.646;2023-03-09T15:21:47;17.63;;;10.00;;
8596;SDS011;4336;49.310;8.646;2023-03-09T15:24:13;18.13;;;13.03;;
8596;SDS011;4336;49.310;8.646;2023-03-09T15:26:40;18.87;;;11.10;;
8596;SDS011;4336;49.310;8.646;2023-03-09T15:29:07;16.70;;;10.83;;
8596;SDS011;4336;49.310;8.646;2023-03-09T15:31:32;16.67;;;12.10;;
8596;SDS011;4336;49.310;8.646;2023-03-09T15:33:58;12.93;;;10.43;;
8596;SDS011;4336;49.310;8.646;2023-03-09T15:36:24;15.07;;;11.83;;
8596;SDS011;4336;49.310;8.646;2023-03-09T15:38:51;16.27;;;10.83;;
8596;SDS011;4336;49.310;8.646;2023-03-09T15:41:17;16.53;;;10.73;;
8596;SDS011;4336;49.310;8.646;2023-03-09T15:43:43;16.97;;;11.07;;
8596;SDS011;4336;49.310;8.646;2023-03-09T15:46:09;15.00;;;10.67;;
8596;SDS011;4336;49.310;8.646;2023-03-09T15:48:35;16.93;;;10.73;;
8596;SDS011;4336;49.310;8.646;2023-03-09T15:51:01;15.13;;;10.80;;
8596;SDS011;4336;49.310;8.646;2023-03-09T15:53:28;17.90;;;10.87;;
8596;SDS011;4336;49.310;8.646;2023-03-09T15:55:59;16.83;;;10.13;;
8596;SDS011;4336;49.310;8.646;2023-03-09T15:58:29;19.43;;;12.23;;
8596;SDS011;4336;49.310;8.646;2023-03-09T16:00:56;20.97;;;14.80;;
8596;SDS011;4336;49.310;8.646;2023-03-09T16:03:26;16.67;;;13.30;;
8596;SDS011;4336;49.310;8.646;2023-03-09T16:05:53;13.73;;;8.27;;
8596;SDS011;4336;49.310;8.646;2023-03-09T16:08:19;17.63;;;11.53;;
8596;SDS011;4336;49.310;8.646;2023-03-09T16:10:45;15.83;;;10.50;;
8596;SDS011;4336;49.310;8.646;2023-03-09T16:13:11;14.37;;;10.07;;
8596;SDS011;4336;49.310;8.646;2023-03-09T16:15:38;25.17;;;17.77;;
8596;SDS011;4336;49.310;8.646;2023-03-09T16:18:05;15.30;;;10.97;;